createdAt,value
2023-01-25T00:01:19.005Z,21.33
2023-01-25T00:04:22.884Z,23.40
2023-01-25T00:07:26.139Z,21.17
2023-01-25T00:10:29.176Z,23.67
2023-01-25T00:13:32.279Z,21.07
2023-01-25T00:16:37.782Z,21.40
2023-01-25T00:19:40.856Z,20.20
2023-01-25T00:22:43.873Z,20.67
2023-01-25T00:25:46.850Z,21.17
2023-01-25T00:28:50.925Z,21.07
2023-01-25T00:32:04.000Z,20.13
2023-01-25T00:35:11.771Z,19.50
2023-01-25T00:38:29.501Z,21.13
2023-01-25T00:41:32.661Z,22.47
2023-01-25T00:44:35.581Z,22.00
2023-01-25T00:47:39.995Z,20.50
2023-01-25T00:50:42.869Z,18.23
2023-01-25T00:53:45.976Z,26.93
2023-01-25T00:56:48.966Z,21.77
2023-01-25T00:59:51.970Z,20.57
2023-01-25T01:02:56.813Z,23.67
2023-01-25T01:06:18.072Z,19.50
2023-01-25T01:09:21.664Z,17.90
2023-01-25T01:12:24.519Z,21.77
2023-01-25T01:16:22.467Z,21.23
2023-01-25T01:19:54.640Z,20.07
2023-01-25T01:22:57.885Z,21.97
2023-01-25T01:26:01.593Z,21.07
2023-01-25T01:29:04.720Z,19.73
2023-01-25T01:32:07.905Z,21.90
2023-01-25T01:35:12.482Z,19.83
2023-01-25T01:38:15.573Z,20.60
2023-01-25T01:41:19.709Z,20.37
2023-01-25T01:44:38.854Z,20.80
2023-01-25T01:47:45.916Z,21.77
2023-01-25T01:50:54.598Z,22.57
2023-01-25T01:54:01.636Z,21.93
2023-01-25T01:57:08.434Z,21.07
2023-01-25T02:00:15.390Z,21.37
2023-01-25T02:03:18.719Z,23.90
2023-01-25T02:06:29.860Z,21.73
2023-01-25T02:09:35.863Z,18.67
2023-01-25T02:12:39.802Z,22.40
2023-01-25T02:15:46.126Z,20.97
2023-01-25T02:18:49.157Z,20.53
2023-01-25T02:21:55.973Z,20.33
2023-01-25T02:25:05.900Z,23.07
2023-01-25T02:28:15.325Z,19.93
2023-01-25T02:31:19.097Z,20.23
2023-01-25T02:34:22.175Z,19.37
2023-01-25T02:37:25.380Z,20.90
2023-01-25T02:40:32.264Z,22.67
2023-01-25T02:43:36.625Z,20.57
2023-01-25T02:46:41.212Z,17.93
2023-01-25T02:49:44.234Z,19.20
2023-01-25T02:52:47.237Z,19.40
2023-01-25T02:55:51.670Z,20.63
2023-01-25T02:58:54.894Z,22.50
2023-01-25T03:01:58.084Z,16.40
2023-01-25T03:05:01.163Z,17.90
2023-01-25T03:08:04.213Z,20.80
2023-01-25T03:11:08.959Z,22.30
2023-01-25T03:14:12.006Z,18.27
2023-01-25T03:17:15.048Z,20.60
2023-01-25T03:20:18.299Z,21.67
2023-01-25T03:23:21.334Z,20.70
2023-01-25T03:26:27.176Z,21.97
2023-01-25T03:29:30.147Z,21.83
2023-01-25T03:32:33.240Z,24.07
2023-01-25T03:35:36.352Z,23.47
2023-01-25T03:38:39.486Z,25.87
2023-01-25T03:41:43.881Z,24.53
2023-01-25T03:44:46.837Z,24.83
2023-01-25T03:47:49.854Z,26.23
2023-01-25T03:50:53.273Z,19.87
2023-01-25T03:53:56.293Z,22.63
2023-01-25T03:57:00.709Z,23.83
2023-01-25T04:00:03.846Z,24.07
2023-01-25T04:03:06.943Z,22.67
2023-01-25T04:06:10.197Z,18.07
2023-01-25T04:09:14.448Z,17.60
2023-01-25T04:12:19.045Z,16.47
2023-01-25T04:15:22.035Z,18.80
2023-01-25T04:18:25.199Z,20.87
2023-01-25T04:21:28.250Z,18.80
2023-01-25T04:24:31.330Z,17.23
2023-01-25T04:27:35.697Z,15.07
2023-01-25T04:30:38.842Z,16.37
2023-01-25T04:33:42.112Z,15.03
2023-01-25T04:36:45.289Z,16.37
2023-01-25T04:39:48.291Z,15.60
2023-01-25T04:42:52.610Z,19.03
2023-01-25T04:45:55.621Z,16.00
2023-01-25T04:48:58.728Z,15.57
2023-01-25T04:52:01.731Z,14.10
2023-01-25T04:55:05.028Z,14.27
2023-01-25T04:58:09.461Z,17.27
2023-01-25T05:01:12.806Z,16.73
2023-01-25T05:04:15.872Z,19.00
2023-01-25T05:07:18.864Z,16.67
2023-01-25T05:10:22.543Z,14.43
2023-01-25T05:13:26.916Z,16.63
2023-01-25T05:16:29.915Z,14.40
2023-01-25T05:19:33.164Z,13.83
2023-01-25T05:22:36.357Z,15.90
2023-01-25T05:25:56.619Z,16.53
2023-01-25T05:29:01.016Z,15.73
2023-01-25T05:32:04.887Z,16.67
2023-01-25T05:35:08.747Z,23.27
2023-01-25T05:38:11.884Z,19.30
2023-01-25T05:41:14.930Z,17.77
2023-01-25T05:44:19.292Z,17.40
2023-01-25T05:47:22.319Z,15.90
2023-01-25T05:50:26.827Z,16.07
2023-01-25T05:53:30.451Z,17.40
2023-01-25T05:56:33.606Z,18.53
2023-01-25T05:59:38.140Z,16.83
2023-01-25T06:02:41.367Z,17.87
2023-01-25T06:05:44.361Z,17.60
2023-01-25T06:08:47.591Z,15.90
2023-01-25T06:11:50.887Z,14.30
2023-01-25T06:14:55.244Z,13.60
2023-01-25T06:17:58.353Z,13.70
2023-01-25T06:21:02.885Z,18.70
2023-01-25T06:24:06.444Z,15.40
2023-01-25T06:27:10.912Z,14.03
2023-01-25T06:30:15.660Z,13.93
2023-01-25T06:33:18.690Z,13.80
2023-01-25T06:36:23.241Z,16.07
2023-01-25T06:39:26.380Z,14.13
2023-01-25T06:42:29.410Z,18.23
2023-01-25T06:45:33.866Z,14.77
2023-01-25T06:48:37.455Z,16.90
2023-01-25T06:51:40.483Z,19.97
2023-01-25T06:54:43.471Z,20.00
2023-01-25T06:57:46.509Z,16.30
2023-01-25T07:00:50.899Z,18.57
2023-01-25T07:03:55.760Z,19.90
2023-01-25T07:06:58.886Z,19.00
2023-01-25T07:10:02.227Z,21.93
2023-01-25T07:13:05.271Z,22.07
2023-01-25T07:16:14.386Z,20.40
2023-01-25T07:19:17.925Z,22.60
2023-01-25T07:22:20.950Z,24.13
2023-01-25T07:25:23.936Z,20.87
2023-01-25T07:28:27.037Z,21.57
2023-01-25T07:31:31.908Z,26.90
2023-01-25T07:34:35.033Z,28.97
2023-01-25T07:37:38.047Z,27.73
2023-01-25T07:40:41.079Z,29.30
2023-01-25T07:43:44.192Z,24.77
2023-01-25T07:46:48.643Z,29.93
2023-01-25T07:49:51.727Z,25.90
2023-01-25T07:52:54.880Z,28.43
2023-01-25T07:56:00.103Z,32.43
2023-01-25T07:59:03.685Z,35.53
2023-01-25T08:02:10.022Z,37.20
2023-01-25T08:05:13.002Z,36.50
2023-01-25T08:08:16.506Z,34.10
2023-01-25T08:11:22.723Z,33.57
2023-01-25T08:14:25.815Z,34.13
2023-01-25T08:17:33.277Z,31.70
2023-01-25T08:20:37.727Z,38.07
2023-01-25T08:23:40.799Z,38.33
2023-01-25T08:26:44.623Z,41.93
2023-01-25T08:29:50.422Z,41.27
2023-01-25T08:32:55.132Z,35.47
2023-01-25T08:35:58.476Z,30.77
2023-01-25T08:39:03.361Z,29.57
2023-01-25T08:42:07.319Z,28.00
2023-01-25T08:45:11.387Z,30.73
2023-01-25T08:48:16.642Z,39.27
2023-01-25T08:51:19.646Z,31.97
2023-01-25T08:54:24.383Z,35.27
2023-01-25T08:57:27.439Z,40.87
2023-01-25T09:00:30.455Z,36.13
2023-01-25T09:03:37.801Z,28.90
2023-01-25T09:06:40.865Z,30.23
2023-01-25T09:09:43.891Z,23.70
2023-01-25T09:12:47.010Z,29.47
2023-01-25T09:15:50.074Z,27.57
2023-01-25T09:18:55.168Z,29.53
2023-01-25T09:21:58.118Z,29.33
2023-01-25T09:25:01.246Z,25.13
2023-01-25T09:28:11.166Z,24.53
2023-01-25T09:31:21.629Z,23.67
2023-01-25T09:34:26.926Z,27.07
2023-01-25T09:37:30.029Z,21.70
2023-01-25T09:40:40.002Z,25.43
2023-01-25T09:44:14.211Z,26.67
2023-01-25T09:47:27.414Z,27.60
2023-01-25T09:50:42.926Z,28.20
2023-01-25T09:53:50.773Z,29.83
2023-01-25T09:56:54.073Z,24.70
2023-01-25T09:59:59.223Z,29.77
2023-01-25T10:03:12.218Z,28.27
2023-01-25T10:06:18.855Z,26.53
2023-01-25T10:09:30.196Z,30.90
2023-01-25T10:12:38.057Z,26.43
2023-01-25T10:15:45.279Z,26.00
2023-01-25T10:18:57.159Z,26.67
2023-01-25T10:22:06.258Z,26.70
2023-01-25T10:25:32.246Z,26.83
2023-01-25T10:28:46.090Z,27.87
2023-01-25T10:31:53.309Z,27.00
2023-01-25T10:34:58.973Z,30.53
2023-01-25T10:38:07.933Z,31.43
2023-01-25T10:41:17.723Z,28.57
2023-01-25T10:44:24.528Z,31.33
2023-01-25T10:47:30.980Z,25.13
2023-01-25T10:50:54.362Z,31.60
2023-01-25T10:54:03.643Z,30.60
2023-01-25T10:57:08.818Z,29.97
2023-01-25T11:00:25.433Z,34.37
2023-01-25T11:03:37.267Z,33.67
2023-01-25T11:06:49.374Z,31.03
2023-01-25T11:09:54.193Z,31.97
2023-01-25T11:13:23.359Z,27.60
2023-01-25T11:16:32.889Z,32.23
2023-01-25T11:19:37.445Z,32.87
2023-01-25T11:22:50.733Z,29.60
2023-01-25T11:25:55.114Z,30.40
2023-01-25T11:29:12.198Z,36.27
2023-01-25T11:32:23.782Z,32.20
2023-01-25T11:35:33.824Z,39.73
2023-01-25T11:38:38.741Z,34.27
2023-01-25T11:41:59.632Z,33.73
2023-01-25T11:45:31.765Z,33.13
2023-01-25T11:48:57.098Z,35.23
2023-01-25T11:52:16.683Z,35.63
2023-01-25T11:55:27.268Z,36.70
2023-01-25T11:58:47.772Z,38.73
2023-01-25T12:02:04.730Z,34.27
2023-01-25T12:05:23.977Z,38.37
2023-01-25T12:08:46.099Z,41.03
2023-01-25T12:12:10.660Z,42.63
2023-01-25T12:15:36.223Z,40.10
2023-01-25T12:19:03.655Z,39.10
2023-01-25T12:22:30.480Z,37.47
2023-01-25T12:25:46.610Z,35.33
2023-01-25T12:28:52.983Z,38.70
2023-01-25T12:32:02.107Z,36.57
2023-01-25T12:35:22.070Z,34.30
2023-01-25T12:38:31.020Z,35.13
2023-01-25T12:41:40.948Z,38.47
2023-01-25T12:44:48.635Z,41.90
2023-01-25T12:47:58.019Z,39.27
2023-01-25T12:51:01.613Z,46.83
2023-01-25T12:54:15.139Z,44.30
2023-01-25T12:57:25.936Z,47.60
2023-01-25T13:00:38.612Z,44.73
2023-01-25T13:03:57.825Z,42.67
2023-01-25T13:07:09.015Z,42.83
2023-01-25T13:10:21.391Z,40.93
2023-01-25T13:13:26.450Z,45.40
2023-01-25T13:16:43.161Z,43.60
2023-01-25T13:19:47.703Z,37.80
2023-01-25T13:22:58.889Z,38.70
2023-01-25T13:26:39.670Z,38.40
2023-01-25T13:29:47.213Z,42.37
2023-01-25T13:33:02.206Z,33.47
2023-01-25T13:36:45.537Z,37.33
2023-01-25T13:39:49.566Z,30.43
2023-01-25T13:43:02.031Z,32.77
2023-01-25T13:46:07.872Z,31.77
2023-01-25T13:49:23.839Z,29.43
2023-01-25T13:52:31.107Z,31.47
2023-01-25T13:55:40.851Z,31.83
2023-01-25T13:58:47.950Z,28.53
2023-01-25T14:01:51.686Z,30.63
2023-01-25T14:04:55.533Z,32.10
2023-01-25T14:08:00.020Z,36.37
2023-01-25T14:11:03.136Z,31.90
2023-01-25T14:14:19.585Z,37.77
2023-01-25T14:17:25.434Z,30.03
2023-01-25T14:20:28.431Z,33.73
2023-01-25T14:23:34.213Z,35.33
2023-01-25T14:26:39.069Z,37.33
2023-01-25T14:29:43.043Z,36.80
2023-01-25T14:32:46.167Z,37.30
2023-01-25T14:35:55.653Z,31.27
2023-01-25T14:39:04.501Z,29.53
2023-01-25T14:42:08.258Z,30.10
2023-01-25T14:45:14.401Z,29.90
2023-01-25T14:48:40.742Z,33.13
2023-01-25T14:51:46.859Z,29.93
2023-01-25T14:54:53.463Z,32.77
2023-01-25T14:58:00.705Z,35.47
2023-01-25T15:01:04.132Z,34.30
2023-01-25T15:04:12.619Z,37.57
2023-01-25T15:07:41.543Z,34.97
2023-01-25T15:10:56.741Z,38.07
2023-01-25T15:14:02.951Z,34.33
2023-01-25T15:17:05.950Z,31.80
2023-01-25T15:20:29.139Z,33.23
2023-01-25T15:23:32.253Z,32.17
2023-01-25T15:26:37.695Z,31.47
2023-01-25T15:29:41.218Z,32.80
2023-01-25T15:32:44.606Z,36.20
2023-01-25T15:35:48.154Z,45.03
2023-01-25T15:38:51.424Z,38.40
2023-01-25T15:41:55.874Z,37.43
2023-01-25T15:44:58.895Z,35.43
2023-01-25T15:48:01.920Z,36.10
2023-01-25T15:51:05.540Z,33.60
2023-01-25T15:54:09.457Z,34.73
2023-01-25T15:57:30.567Z,35.33
2023-01-25T16:00:33.555Z,34.73
2023-01-25T16:03:36.571Z,37.93
2023-01-25T16:06:42.902Z,35.63
2023-01-25T16:09:45.886Z,34.00
2023-01-25T16:12:50.659Z,28.97
2023-01-25T16:15:56.924Z,39.47
2023-01-25T16:19:01.504Z,32.00
2023-01-25T16:22:04.503Z,30.13
2023-01-25T16:25:09.252Z,27.90
2023-01-25T16:28:16.619Z,32.43
2023-01-25T16:31:31.779Z,33.00
2023-01-25T16:34:36.134Z,31.33
2023-01-25T16:37:39.135Z,27.63
2023-01-25T16:40:42.452Z,32.43
2023-01-25T16:43:48.237Z,28.60
2023-01-25T16:46:51.732Z,32.13
2023-01-25T16:49:54.747Z,27.10
2023-01-25T16:52:59.978Z,33.50
2023-01-25T16:56:03.162Z,31.93
2023-01-25T16:59:09.297Z,32.10
2023-01-25T17:02:13.197Z,35.73
2023-01-25T17:05:16.162Z,31.07
2023-01-25T17:08:19.210Z,34.37
2023-01-25T17:11:23.279Z,32.70
2023-01-25T17:14:27.688Z,34.43
2023-01-25T17:17:31.254Z,34.43
2023-01-25T17:20:34.279Z,40.27
2023-01-25T17:23:38.551Z,32.47
2023-01-25T17:26:41.851Z,34.77
2023-01-25T17:29:46.219Z,35.53
2023-01-25T17:32:49.336Z,28.23
2023-01-25T17:35:58.320Z,30.83
2023-01-25T17:39:04.894Z,29.20
2023-01-25T17:42:10.739Z,30.90
2023-01-25T17:45:15.123Z,29.73
2023-01-25T17:48:18.149Z,30.87
2023-01-25T17:51:23.420Z,35.23
2023-01-25T17:54:27.943Z,29.97
2023-01-25T17:57:31.550Z,29.33
2023-01-25T18:00:36.012Z,33.77
2023-01-25T18:03:38.995Z,29.90
2023-01-25T18:06:42.204Z,25.80
2023-01-25T18:09:45.246Z,30.77
2023-01-25T18:13:03.753Z,25.57
2023-01-25T18:16:10.434Z,33.17
2023-01-25T18:19:14.474Z,32.57
2023-01-25T18:22:18.043Z,31.30
2023-01-25T18:25:34.018Z,30.17
2023-01-25T18:28:37.338Z,32.03
2023-01-25T18:31:42.502Z,31.83
2023-01-25T18:34:47.976Z,33.17
2023-01-25T18:37:51.036Z,35.80
2023-01-25T18:40:54.398Z,31.47
2023-01-25T18:43:57.639Z,37.57
2023-01-25T18:47:02.419Z,37.57
2023-01-25T18:50:06.693Z,35.10
2023-01-25T18:53:10.234Z,34.90
2023-01-25T18:56:15.700Z,31.80
2023-01-25T18:59:18.687Z,33.60
2023-01-25T19:02:23.892Z,32.30
2023-01-25T19:05:27.225Z,38.03
2023-01-25T19:08:32.353Z,33.53
2023-01-25T19:11:35.349Z,41.13
2023-01-25T19:14:38.456Z,33.43
2023-01-25T19:17:42.816Z,35.17
2023-01-25T19:20:45.794Z,41.00
2023-01-25T19:23:49.507Z,31.80
2023-01-25T19:26:54.148Z,33.47
2023-01-25T19:29:57.195Z,30.93
2023-01-25T19:33:01.578Z,34.53
2023-01-25T19:36:06.606Z,32.37
2023-01-25T19:39:10.163Z,28.57
2023-01-25T19:42:13.261Z,28.87
2023-01-25T19:45:16.359Z,26.83
2023-01-25T19:48:20.754Z,28.17
2023-01-25T19:51:26.129Z,32.53
2023-01-25T19:54:29.322Z,29.13
2023-01-25T19:57:32.557Z,33.17
2023-01-25T20:00:36.223Z,29.77
2023-01-25T20:03:41.154Z,28.97
2023-01-25T20:06:44.327Z,29.73
2023-01-25T20:09:47.335Z,28.50
2023-01-25T20:12:50.315Z,26.57
2023-01-25T20:15:53.416Z,25.47
2023-01-25T20:18:58.227Z,23.60
2023-01-25T20:22:01.300Z,30.97
2023-01-25T20:25:04.410Z,29.27
2023-01-25T20:28:07.385Z,25.20
2023-01-25T20:31:20.206Z,26.70
2023-01-25T20:34:25.148Z,26.10
2023-01-25T20:37:28.141Z,30.37
2023-01-25T20:40:31.193Z,26.27
2023-01-25T20:43:34.928Z,27.30
2023-01-25T20:46:39.425Z,26.80
2023-01-25T20:49:44.550Z,28.17
2023-01-25T20:52:47.623Z,26.07
2023-01-25T20:55:56.332Z,24.73
2023-01-25T20:58:59.776Z,25.77
2023-01-25T21:02:02.791Z,25.63
2023-01-25T21:05:08.181Z,26.57
2023-01-25T21:08:11.372Z,29.37
2023-01-25T21:11:14.598Z,23.60
2023-01-25T21:14:19.383Z,24.50
2023-01-25T21:17:22.422Z,23.87
2023-01-25T21:20:26.779Z,25.90
2023-01-25T21:23:29.942Z,25.93
2023-01-25T21:26:34.787Z,25.40
2023-01-25T21:29:37.883Z,24.13
2023-01-25T21:32:40.910Z,29.47
2023-01-25T21:35:45.392Z,24.67
2023-01-25T21:38:49.897Z,21.97
2023-01-25T21:41:52.863Z,24.30
2023-01-25T21:45:13.169Z,25.23
2023-01-25T21:48:36.478Z,26.90
2023-01-25T21:51:47.031Z,25.53
2023-01-25T21:54:50.191Z,23.93
2023-01-25T21:57:53.233Z,24.40
2023-01-25T22:01:01.893Z,23.63
2023-01-25T22:04:05.349Z,21.57
2023-01-25T22:07:10.550Z,23.00
2023-01-25T22:10:13.626Z,22.97
2023-01-25T22:13:16.629Z,27.80
2023-01-25T22:16:21.332Z,24.27
2023-01-25T22:19:24.522Z,24.50
2023-01-25T22:22:28.913Z,22.63
2023-01-25T22:25:31.922Z,24.83
2023-01-25T22:28:40.052Z,24.30
2023-01-25T22:31:43.981Z,22.47
2023-01-25T22:34:47.058Z,21.40
2023-01-25T22:37:51.413Z,21.60
2023-01-25T22:40:56.438Z,25.70
2023-01-25T22:43:59.777Z,25.73
2023-01-25T22:47:02.820Z,21.70
2023-01-25T22:50:06.659Z,23.73
2023-01-25T22:53:11.047Z,22.30
2023-01-25T22:56:15.507Z,20.07
2023-01-25T22:59:19.370Z,17.23
2023-01-25T23:02:22.417Z,22.37
2023-01-25T23:05:25.509Z,25.63
2023-01-25T23:08:33.534Z,25.40
2023-01-25T23:11:38.248Z,21.37
2023-01-25T23:14:53.872Z,26.27
2023-01-25T23:18:14.320Z,25.03
2023-01-25T23:21:18.173Z,23.33
2023-01-25T23:24:26.368Z,29.43
2023-01-25T23:27:29.454Z,24.00
2023-01-25T23:30:32.586Z,24.03
2023-01-25T23:33:35.640Z,20.77
2023-01-25T23:36:41.307Z,23.37
2023-01-25T23:39:45.774Z,18.83
2023-01-25T23:42:48.729Z,22.67
2023-01-25T23:45:51.742Z,19.43
2023-01-25T23:48:54.979Z,24.07
2023-01-25T23:51:58.018Z,23.43
2023-01-25T23:55:02.607Z,24.00
2023-01-25T23:58:05.941Z,24.90
